KAMW/AMW METAR and TAF weather

Enter ICAO airport designator
Station Type Date Time Source
KAMW METAR 2019/04/25 21:53 UTC NOAA

KAMW 252153Z AUTO VRB04KT 10SM CLR 16/08 A2989 RMK AO2 SLP119 T01610083


Station Type Date Time Source
KAMW Decoded METAR 2019/04/25 21:53 UTC NOAA

AMES MUNICIPAL AIRPORT, IA, United States (KAMW) 41-59N 93-37W 279M
Apr 25, 2019 - 05:53 PM EDT / 2019.04.25 2153 UTC
Wind: Variable at 5 MPH (4 KT):0
Visibility: 10 mile(s):0
Sky conditions: clear
Temperature: 61.0 F (16.1 C)
Dew Point: 46.9 F (8.3 C)
Relative Humidity: 59%
Pressure (altimeter): 29.89 in. Hg (1012 hPa)
ob: KAMW 252153Z AUTO VRB04KT 10SM CLR 16/08 A2989 RMK AO2 SLP119 T01610083
cycle: 22

Station Type Date Time Source
KAMW TAF UTC NOAA

Error!

Example: see airport list